Roan Cliffs, Utah
Current Conditions -  °F | °C
As of 2:53 AM on Monday 20 Oct 2014 (Local Time) from KPUC Reporting Station
Clear Clear  
Wind Chill: 45°   Ceiling: Unl
Heat Index: 47°   Visibility: 10mi
Dew Point: 30°   Wind: 5mph
Humidity: 52%   Direction: 30°NNE
Pressure: 30.14"   Gusts: NA
Location:  39.63°N, 110.33°W
Report Text: KPUC 200853Z AUTO 03004KT 10SM CLR 08/M01 A3014 RMK AO2 SLP164 T00831011 55001 TSNO
Loading
Personal Weather Stations






























Interactive Weather Map
Tropical Storm Tracking
New forecast layout! Learn more

10-Day Weather Forecast

Advertisements
Track Severe Weather on mobile